sensor_id;sensor_type;location;lat;lon;timestamp;temperature;humidity
10129;DHT22;5104;50.720;7.044;2022-11-20T00:01:28;3.70;99.90
10129;DHT22;5104;50.720;7.044;2022-11-20T00:03:56;3.70;99.90
10129;DHT22;5104;50.720;7.044;2022-11-20T00:06:24;3.70;99.90
10129;DHT22;5104;50.720;7.044;2022-11-20T00:08:54;3.70;99.90
10129;DHT22;5104;50.720;7.044;2022-11-20T00:11:22;3.80;99.90
10129;DHT22;5104;50.720;7.044;2022-11-20T00:13:55;3.90;99.90
10129;DHT22;5104;50.720;7.044;2022-11-20T00:16:24;3.80;99.90
10129;DHT22;5104;50.720;7.044;2022-11-20T00:18:52;3.70;99.90
10129;DHT22;5104;50.720;7.044;2022-11-20T00:21:20;3.80;99.90
10129;DHT22;5104;50.720;7.044;2022-11-20T00:23:48;3.70;99.90
10129;DHT22;5104;50.720;7.044;2022-11-20T00:26:16;3.70;99.90
10129;DHT22;5104;50.720;7.044;2022-11-20T00:28:48;3.70;99.90
10129;DHT22;5104;50.720;7.044;2022-11-20T00:31:17;3.70;99.90
10129;DHT22;5104;50.720;7.044;2022-11-20T00:33:44;3.80;99.90
10129;DHT22;5104;50.720;7.044;2022-11-20T00:36:13;3.80;99.90
10129;DHT22;5104;50.720;7.044;2022-11-20T00:38:40;3.80;99.90
10129;DHT22;5104;50.720;7.044;2022-11-20T00:41:09;3.90;99.90
10129;DHT22;5104;50.720;7.044;2022-11-20T00:43:36;3.80;99.90
10129;DHT22;5104;50.720;7.044;2022-11-20T00:46:05;3.90;99.90
10129;DHT22;5104;50.720;7.044;2022-11-20T00:48:34;3.80;99.90
10129;DHT22;5104;50.720;7.044;2022-11-20T00:51:02;3.80;99.90
10129;DHT22;5104;50.720;7.044;2022-11-20T00:53:29;3.80;99.90
10129;DHT22;5104;50.720;7.044;2022-11-20T00:55:57;3.70;99.90
10129;DHT22;5104;50.720;7.044;2022-11-20T00:58:28;3.70;99.90
10129;DHT22;5104;50.720;7.044;2022-11-20T01:01:02;3.60;99.90
10129;DHT22;5104;50.720;7.044;2022-11-20T01:03:31;3.70;99.90
10129;DHT22;5104;50.720;7.044;2022-11-20T01:06:02;3.70;99.90
10129;DHT22;5104;50.720;7.044;2022-11-20T01:08:30;3.70;99.90
10129;DHT22;5104;50.720;7.044;2022-11-20T01:11:02;3.80;99.90
10129;DHT22;5104;50.720;7.044;2022-11-20T01:13:29;3.70;99.90
10129;DHT22;5104;50.720;7.044;2022-11-20T01:16:08;3.60;99.90
10129;DHT22;5104;50.720;7.044;2022-11-20T01:18:35;3.60;99.90
10129;DHT22;5104;50.720;7.044;2022-11-20T01:21:06;3.50;99.90
10129;DHT22;5104;50.720;7.044;2022-11-20T01:23:34;3.60;99.90
10129;DHT22;5104;50.720;7.044;2022-11-20T01:26:09;3.60;99.90
10129;DHT22;5104;50.720;7.044;2022-11-20T01:28:38;3.70;99.90
10129;DHT22;5104;50.720;7.044;2022-11-20T01:31:12;3.70;99.90
10129;DHT22;5104;50.720;7.044;2022-11-20T01:33:40;3.70;99.90
10129;DHT22;5104;50.720;7.044;2022-11-20T01:36:09;3.80;99.90
10129;DHT22;5104;50.720;7.044;2022-11-20T01:38:37;3.80;99.90
10129;DHT22;5104;50.720;7.044;2022-11-20T01:41:04;3.70;99.90
10129;DHT22;5104;50.720;7.044;2022-11-20T01:43:32;3.70;99.90
10129;DHT22;5104;50.720;7.044;2022-11-20T01:48:53;3.90;99.90
10129;DHT22;5104;50.720;7.044;2022-11-20T01:51:25;3.80;99.90
10129;DHT22;5104;50.720;7.044;2022-11-20T01:53:56;3.70;99.90
10129;DHT22;5104;50.720;7.044;2022-11-20T01:56:25;3.70;99.90
10129;DHT22;5104;50.720;7.044;2022-11-20T01:58:55;3.80;99.90
10129;DHT22;5104;50.720;7.044;2022-11-20T02:01:23;3.80;99.90
10129;DHT22;5104;50.720;7.044;2022-11-20T02:03:50;3.80;99.90
10129;DHT22;5104;50.720;7.044;2022-11-20T02:06:21;3.70;99.90
10129;DHT22;5104;50.720;7.044;2022-11-20T02:08:51;3.80;99.90
10129;DHT22;5104;50.720;7.044;2022-11-20T02:11:19;3.90;99.90
10129;DHT22;5104;50.720;7.044;2022-11-20T02:13:46;3.90;99.90
10129;DHT22;5104;50.720;7.044;2022-11-20T02:16:15;3.90;99.90
10129;DHT22;5104;50.720;7.044;2022-11-20T02:18:44;3.80;99.90
10129;DHT22;5104;50.720;7.044;2022-11-20T02:21:26;3.70;99.90
10129;DHT22;5104;50.720;7.044;2022-11-20T02:24:07;3.70;99.90
10129;DHT22;5104;50.720;7.044;2022-11-20T02:26:40;3.80;99.90
10129;DHT22;5104;50.720;7.044;2022-11-20T02:29:08;3.80;99.90
10129;DHT22;5104;50.720;7.044;2022-11-20T02:31:37;3.80;99.90
10129;DHT22;5104;50.720;7.044;2022-11-20T02:34:05;3.80;99.90
10129;DHT22;5104;50.720;7.044;2022-11-20T02:36:32;3.80;99.90
10129;DHT22;5104;50.720;7.044;2022-11-20T02:39:01;3.70;99.90
10129;DHT22;5104;50.720;7.044;2022-11-20T02:41:34;3.70;99.90
10129;DHT22;5104;50.720;7.044;2022-11-20T02:44:01;3.80;99.90
10129;DHT22;5104;50.720;7.044;2022-11-20T02:46:28;3.80;99.90
10129;DHT22;5104;50.720;7.044;2022-11-20T02:48:56;3.90;99.90
10129;DHT22;5104;50.720;7.044;2022-11-20T02:51:23;3.80;99.90
10129;DHT22;5104;50.720;7.044;2022-11-20T02:53:54;3.80;99.90
10129;DHT22;5104;50.720;7.044;2022-11-20T02:56:21;3.80;99.90
10129;DHT22;5104;50.720;7.044;2022-11-20T02:58:49;3.80;99.90
10129;DHT22;5104;50.720;7.044;2022-11-20T03:01:16;3.80;99.90
10129;DHT22;5104;50.720;7.044;2022-11-20T03:03:43;3.70;99.90
10129;DHT22;5104;50.720;7.044;2022-11-20T03:06:10;3.80;99.90
10129;DHT22;5104;50.720;7.044;2022-11-20T03:08:36;3.80;99.90
10129;DHT22;5104;50.720;7.044;2022-11-20T03:11:05;3.80;99.90
10129;DHT22;5104;50.720;7.044;2022-11-20T03:13:33;3.90;99.90
10129;DHT22;5104;50.720;7.044;2022-11-20T03:16:07;4.00;99.90
10129;DHT22;5104;50.720;7.044;2022-11-20T03:18:34;4.00;99.90
10129;DHT22;5104;50.720;7.044;2022-11-20T03:21:01;4.00;99.90
10129;DHT22;5104;50.720;7.044;2022-11-20T03:23:29;4.00;99.90
10129;DHT22;5104;50.720;7.044;2022-11-20T03:26:07;4.00;99.90
10129;DHT22;5104;50.720;7.044;2022-11-20T03:28:34;4.00;99.90
10129;DHT22;5104;50.720;7.044;2022-11-20T03:31:09;4.10;99.90
10129;DHT22;5104;50.720;7.044;2022-11-20T03:33:36;4.10;99.90
10129;DHT22;5104;50.720;7.044;2022-11-20T03:36:04;4.20;99.90
10129;DHT22;5104;50.720;7.044;2022-11-20T03:38:32;4.10;99.90
10129;DHT22;5104;50.720;7.044;2022-11-20T03:41:00;4.10;99.90
10129;DHT22;5104;50.720;7.044;2022-11-20T03:43:28;4.10;99.90
10129;DHT22;5104;50.720;7.044;2022-11-20T03:45:55;4.10;99.90
10129;DHT22;5104;50.720;7.044;2022-11-20T03:48:23;4.00;99.90
10129;DHT22;5104;50.720;7.044;2022-11-20T03:50:50;4.00;99.90
10129;DHT22;5104;50.720;7.044;2022-11-20T03:53:19;4.00;99.90
10129;DHT22;5104;50.720;7.044;2022-11-20T03:55:51;4.00;99.90
10129;DHT22;5104;50.720;7.044;2022-11-20T03:58:18;4.00;99.90
10129;DHT22;5104;50.720;7.044;2022-11-20T04:00:44;4.00;99.90
10129;DHT22;5104;50.720;7.044;2022-11-20T04:03:11;4.10;99.90
10129;DHT22;5104;50.720;7.044;2022-11-20T04:05:40;4.10;99.90
10129;DHT22;5104;50.720;7.044;2022-11-20T04:08:06;4.00;99.90
10129;DHT22;5104;50.720;7.044;2022-11-20T04:10:34;4.10;99.90
10129;DHT22;5104;50.720;7.044;2022-11-20T04:13:01;4.10;99.90
10129;DHT22;5104;50.720;7.044;2022-11-20T04:15:28;4.10;99.90
10129;DHT22;5104;50.720;7.044;2022-11-20T04:17:55;4.10;99.90
10129;DHT22;5104;50.720;7.044;2022-11-20T04:20:22;4.00;99.90
10129;DHT22;5104;50.720;7.044;2022-11-20T04:22:53;4.00;99.90
10129;DHT22;5104;50.720;7.044;2022-11-20T04:25:20;4.00;99.90
10129;DHT22;5104;50.720;7.044;2022-11-20T04:27:46;4.00;99.90
10129;DHT22;5104;50.720;7.044;2022-11-20T04:30:14;4.10;99.90
10129;DHT22;5104;50.720;7.044;2022-11-20T04:32:41;4.00;99.90
10129;DHT22;5104;50.720;7.044;2022-11-20T04:35:07;4.10;99.90
10129;DHT22;5104;50.720;7.044;2022-11-20T04:37:34;4.10;99.90
10129;DHT22;5104;50.720;7.044;2022-11-20T04:40:03;4.10;99.90
10129;DHT22;5104;50.720;7.044;2022-11-20T04:42:30;4.10;99.90
10129;DHT22;5104;50.720;7.044;2022-11-20T04:44:57;4.10;99.90
10129;DHT22;5104;50.720;7.044;2022-11-20T04:47:24;4.10;99.90
10129;DHT22;5104;50.720;7.044;2022-11-20T04:49:51;4.20;99.90
10129;DHT22;5104;50.720;7.044;2022-11-20T04:52:18;4.20;99.90
10129;DHT22;5104;50.720;7.044;2022-11-20T04:54:45;4.20;99.90
10129;DHT22;5104;50.720;7.044;2022-11-20T04:57:14;4.10;99.90
10129;DHT22;5104;50.720;7.044;2022-11-20T04:59:41;4.00;99.90
10129;DHT22;5104;50.720;7.044;2022-11-20T05:02:09;4.00;99.90
10129;DHT22;5104;50.720;7.044;2022-11-20T05:04:36;4.10;99.90
10129;DHT22;5104;50.720;7.044;2022-11-20T05:07:03;4.00;99.90
10129;DHT22;5104;50.720;7.044;2022-11-20T05:09:30;4.10;99.90
10129;DHT22;5104;50.720;7.044;2022-11-20T05:11:57;4.10;99.90
10129;DHT22;5104;50.720;7.044;2022-11-20T05:14:25;4.10;99.90
10129;DHT22;5104;50.720;7.044;2022-11-20T05:16:52;4.10;99.90
10129;DHT22;5104;50.720;7.044;2022-11-20T05:19:18;4.10;99.90
10129;DHT22;5104;50.720;7.044;2022-11-20T05:21:45;4.20;99.90
10129;DHT22;5104;50.720;7.044;2022-11-20T05:24:12;4.20;99.90
10129;DHT22;5104;50.720;7.044;2022-11-20T05:26:39;4.20;99.90
10129;DHT22;5104;50.720;7.044;2022-11-20T05:29:06;4.30;99.90
10129;DHT22;5104;50.720;7.044;2022-11-20T05:31:34;4.30;99.90
10129;DHT22;5104;50.720;7.044;2022-11-20T05:34:01;4.30;99.90
10129;DHT22;5104;50.720;7.044;2022-11-20T05:36:28;4.40;99.90
10129;DHT22;5104;50.720;7.044;2022-11-20T05:38:56;4.40;99.90
10129;DHT22;5104;50.720;7.044;2022-11-20T05:41:23;4.40;99.90
10129;DHT22;5104;50.720;7.044;2022-11-20T05:43:50;4.40;99.90
10129;DHT22;5104;50.720;7.044;2022-11-20T05:46:19;4.50;99.90
10129;DHT22;5104;50.720;7.044;2022-11-20T05:48:47;4.40;99.90
10129;DHT22;5104;50.720;7.044;2022-11-20T05:51:16;4.40;99.90
10129;DHT22;5104;50.720;7.044;2022-11-20T05:53:45;4.40;99.90
10129;DHT22;5104;50.720;7.044;2022-11-20T05:56:13;4.40;99.90
10129;DHT22;5104;50.720;7.044;2022-11-20T05:58:41;4.40;99.90
10129;DHT22;5104;50.720;7.044;2022-11-20T06:01:09;4.40;99.90
10129;DHT22;5104;50.720;7.044;2022-11-20T06:03:37;4.40;99.90
10129;DHT22;5104;50.720;7.044;2022-11-20T06:06:06;4.50;99.90
10129;DHT22;5104;50.720;7.044;2022-11-20T06:08:34;4.50;99.90
10129;DHT22;5104;50.720;7.044;2022-11-20T06:11:04;4.40;99.90
10129;DHT22;5104;50.720;7.044;2022-11-20T06:13:31;4.40;99.90
10129;DHT22;5104;50.720;7.044;2022-11-20T06:15:58;4.40;99.90
10129;DHT22;5104;50.720;7.044;2022-11-20T06:18:26;4.40;99.90
10129;DHT22;5104;50.720;7.044;2022-11-20T06:20:59;4.40;99.90
10129;DHT22;5104;50.720;7.044;2022-11-20T06:23:29;4.40;99.90
10129;DHT22;5104;50.720;7.044;2022-11-20T06:25:56;4.30;99.90
10129;DHT22;5104;50.720;7.044;2022-11-20T06:28:23;4.30;99.90
10129;DHT22;5104;50.720;7.044;2022-11-20T06:30:50;4.40;99.90
10129;DHT22;5104;50.720;7.044;2022-11-20T06:33:17;4.30;99.90
10129;DHT22;5104;50.720;7.044;2022-11-20T06:35:43;4.30;99.90
10129;DHT22;5104;50.720;7.044;2022-11-20T06:38:10;4.30;99.90
10129;DHT22;5104;50.720;7.044;2022-11-20T06:40:41;4.30;99.90
10129;DHT22;5104;50.720;7.044;2022-11-20T06:43:08;4.30;99.90
10129;DHT22;5104;50.720;7.044;2022-11-20T06:45:35;4.30;99.90
10129;DHT22;5104;50.720;7.044;2022-11-20T06:48:03;4.30;99.90
10129;DHT22;5104;50.720;7.044;2022-11-20T06:50:30;4.30;99.90
10129;DHT22;5104;50.720;7.044;2022-11-20T06:53:00;4.30;99.90
10129;DHT22;5104;50.720;7.044;2022-11-20T06:55:28;4.30;99.90
10129;DHT22;5104;50.720;7.044;2022-11-20T06:57:56;4.30;99.90
10129;DHT22;5104;50.720;7.044;2022-11-20T07:00:23;4.40;99.90
10129;DHT22;5104;50.720;7.044;2022-11-20T07:02:50;4.40;99.90
10129;DHT22;5104;50.720;7.044;2022-11-20T07:05:17;4.40;99.90
10129;DHT22;5104;50.720;7.044;2022-11-20T07:07:44;4.40;99.90
10129;DHT22;5104;50.720;7.044;2022-11-20T07:10:11;4.40;99.90
10129;DHT22;5104;50.720;7.044;2022-11-20T07:12:38;4.50;99.90
10129;DHT22;5104;50.720;7.044;2022-11-20T07:15:07;4.50;99.90
10129;DHT22;5104;50.720;7.044;2022-11-20T07:17:34;4.50;99.90
10129;DHT22;5104;50.720;7.044;2022-11-20T07:20:01;4.50;99.90
10129;DHT22;5104;50.720;7.044;2022-11-20T07:22:28;4.60;99.90
10129;DHT22;5104;50.720;7.044;2022-11-20T07:24:55;4.60;99.90
10129;DHT22;5104;50.720;7.044;2022-11-20T07:27:21;4.60;99.90
10129;DHT22;5104;50.720;7.044;2022-11-20T07:29:48;4.60;99.90
10129;DHT22;5104;50.720;7.044;2022-11-20T07:32:17;4.60;99.90
10129;DHT22;5104;50.720;7.044;2022-11-20T07:34:44;4.70;99.90
10129;DHT22;5104;50.720;7.044;2022-11-20T07:37:12;4.70;99.90
10129;DHT22;5104;50.720;7.044;2022-11-20T07:39:39;4.60;99.90
10129;DHT22;5104;50.720;7.044;2022-11-20T07:42:06;4.50;99.90
10129;DHT22;5104;50.720;7.044;2022-11-20T07:44:33;4.50;99.90
10129;DHT22;5104;50.720;7.044;2022-11-20T07:47:01;4.50;99.90
10129;DHT22;5104;50.720;7.044;2022-11-20T07:49:29;4.50;99.90
10129;DHT22;5104;50.720;7.044;2022-11-20T07:51:56;4.50;99.90
10129;DHT22;5104;50.720;7.044;2022-11-20T07:54:23;4.60;99.90
10129;DHT22;5104;50.720;7.044;2022-11-20T07:56:50;4.60;99.90
10129;DHT22;5104;50.720;7.044;2022-11-20T07:59:17;4.60;99.90
10129;DHT22;5104;50.720;7.044;2022-11-20T08:01:44;4.50;99.90
10129;DHT22;5104;50.720;7.044;2022-11-20T08:04:11;4.50;99.90
10129;DHT22;5104;50.720;7.044;2022-11-20T08:06:39;4.50;99.90
10129;DHT22;5104;50.720;7.044;2022-11-20T08:09:06;4.50;99.90
10129;DHT22;5104;50.720;7.044;2022-11-20T08:11:33;4.50;99.90
10129;DHT22;5104;50.720;7.044;2022-11-20T08:14:17;4.60;99.90
10129;DHT22;5104;50.720;7.044;2022-11-20T08:16:46;4.70;99.90
10129;DHT22;5104;50.720;7.044;2022-11-20T08:19:14;4.70;99.90
10129;DHT22;5104;50.720;7.044;2022-11-20T08:21:43;4.60;99.90
10129;DHT22;5104;50.720;7.044;2022-11-20T08:24:10;4.60;99.90
10129;DHT22;5104;50.720;7.044;2022-11-20T08:26:39;4.70;99.90
10129;DHT22;5104;50.720;7.044;2022-11-20T08:29:06;4.70;99.90
10129;DHT22;5104;50.720;7.044;2022-11-20T08:31:33;4.80;99.90
10129;DHT22;5104;50.720;7.044;2022-11-20T08:34:00;4.80;99.90
10129;DHT22;5104;50.720;7.044;2022-11-20T08:36:27;4.90;99.90
10129;DHT22;5104;50.720;7.044;2022-11-20T08:38:56;5.00;99.90
10129;DHT22;5104;50.720;7.044;2022-11-20T08:41:22;5.10;99.90
10129;DHT22;5104;50.720;7.044;2022-11-20T08:43:54;5.20;99.90
10129;DHT22;5104;50.720;7.044;2022-11-20T08:46:21;5.20;99.90
10129;DHT22;5104;50.720;7.044;2022-11-20T08:48:48;5.30;99.90
10129;DHT22;5104;50.720;7.044;2022-11-20T08:51:15;5.40;99.90
10129;DHT22;5104;50.720;7.044;2022-11-20T08:53:42;5.40;99.90
10129;DHT22;5104;50.720;7.044;2022-11-20T08:56:10;5.30;99.90
10129;DHT22;5104;50.720;7.044;2022-11-20T08:58:37;5.50;99.90
10129;DHT22;5104;50.720;7.044;2022-11-20T09:01:04;5.50;99.90
10129;DHT22;5104;50.720;7.044;2022-11-20T09:03:31;5.50;99.90
10129;DHT22;5104;50.720;7.044;2022-11-20T09:05:59;5.50;99.90
10129;DHT22;5104;50.720;7.044;2022-11-20T09:08:27;5.60;99.90
10129;DHT22;5104;50.720;7.044;2022-11-20T09:10:55;5.60;99.90
10129;DHT22;5104;50.720;7.044;2022-11-20T09:13:24;5.60;99.90
10129;DHT22;5104;50.720;7.044;2022-11-20T09:15:55;5.60;99.90
10129;DHT22;5104;50.720;7.044;2022-11-20T09:18:22;5.60;99.90
10129;DHT22;5104;50.720;7.044;2022-11-20T09:20:48;5.80;99.90
10129;DHT22;5104;50.720;7.044;2022-11-20T09:23:16;5.70;99.90
10129;DHT22;5104;50.720;7.044;2022-11-20T09:25:43;5.80;99.90
10129;DHT22;5104;50.720;7.044;2022-11-20T09:28:10;5.90;99.90
10129;DHT22;5104;50.720;7.044;2022-11-20T09:30:38;5.80;99.90
10129;DHT22;5104;50.720;7.044;2022-11-20T09:33:05;5.90;99.90
10129;DHT22;5104;50.720;7.044;2022-11-20T09:35:32;6.00;99.90
10129;DHT22;5104;50.720;7.044;2022-11-20T09:38:04;6.00;99.90
10129;DHT22;5104;50.720;7.044;2022-11-20T09:40:32;6.00;99.90
10129;DHT22;5104;50.720;7.044;2022-11-20T09:43:05;5.90;99.90
10129;DHT22;5104;50.720;7.044;2022-11-20T09:45:49;5.80;99.90
10129;DHT22;5104;50.720;7.044;2022-11-20T09:48:43;5.90;99.90
10129;DHT22;5104;50.720;7.044;2022-11-20T09:51:20;6.10;99.90
10129;DHT22;5104;50.720;7.044;2022-11-20T09:54:00;6.20;99.90
10129;DHT22;5104;50.720;7.044;2022-11-20T09:56:29;6.10;99.90
10129;DHT22;5104;50.720;7.044;2022-11-20T09:59:01;6.00;99.90
10129;DHT22;5104;50.720;7.044;2022-11-20T10:01:32;6.10;99.90
10129;DHT22;5104;50.720;7.044;2022-11-20T10:04:02;6.30;99.90
10129;DHT22;5104;50.720;7.044;2022-11-20T10:06:31;6.30;99.90
10129;DHT22;5104;50.720;7.044;2022-11-20T10:09:06;6.30;99.90
10129;DHT22;5104;50.720;7.044;2022-11-20T10:11:48;6.30;99.90
10129;DHT22;5104;50.720;7.044;2022-11-20T10:14:23;6.40;99.90
10129;DHT22;5104;50.720;7.044;2022-11-20T10:17:02;6.50;99.90
10129;DHT22;5104;50.720;7.044;2022-11-20T10:19:43;6.60;99.90
10129;DHT22;5104;50.720;7.044;2022-11-20T10:22:19;6.70;99.90
10129;DHT22;5104;50.720;7.044;2022-11-20T10:24:56;6.60;99.90
10129;DHT22;5104;50.720;7.044;2022-11-20T10:27:50;6.40;99.90
10129;DHT22;5104;50.720;7.044;2022-11-20T10:30:20;6.30;99.90
10129;DHT22;5104;50.720;7.044;2022-11-20T10:32:54;6.40;99.90
10129;DHT22;5104;50.720;7.044;2022-11-20T10:35:25;6.50;99.90
10129;DHT22;5104;50.720;7.044;2022-11-20T10:37:56;6.40;99.90
10129;DHT22;5104;50.720;7.044;2022-11-20T10:40:29;6.30;99.90
10129;DHT22;5104;50.720;7.044;2022-11-20T10:43:00;6.40;99.90
10129;DHT22;5104;50.720;7.044;2022-11-20T10:45:36;6.30;99.90
10129;DHT22;5104;50.720;7.044;2022-11-20T10:48:14;6.30;99.90
10129;DHT22;5104;50.720;7.044;2022-11-20T10:51:09;6.30;99.90
10129;DHT22;5104;50.720;7.044;2022-11-20T10:53:47;6.20;99.90
10129;DHT22;5104;50.720;7.044;2022-11-20T10:56:20;6.30;99.90
10129;DHT22;5104;50.720;7.044;2022-11-20T10:59:04;6.40;99.90
10129;DHT22;5104;50.720;7.044;2022-11-20T11:01:40;6.40;99.90
10129;DHT22;5104;50.720;7.044;2022-11-20T11:04:24;6.40;99.90
10129;DHT22;5104;50.720;7.044;2022-11-20T11:07:02;6.40;99.90
10129;DHT22;5104;50.720;7.044;2022-11-20T11:09:35;6.50;99.90
10129;DHT22;5104;50.720;7.044;2022-11-20T11:12:07;6.70;99.90
10129;DHT22;5104;50.720;7.044;2022-11-20T11:14:43;6.60;99.90
10129;DHT22;5104;50.720;7.044;2022-11-20T11:17:24;6.60;99.90
10129;DHT22;5104;50.720;7.044;2022-11-20T11:20:06;6.80;99.90
10129;DHT22;5104;50.720;7.044;2022-11-20T11:22:44;6.90;99.90
10129;DHT22;5104;50.720;7.044;2022-11-20T11:25:27;6.90;99.90
10129;DHT22;5104;50.720;7.044;2022-11-20T11:27:56;6.80;99.90
10129;DHT22;5104;50.720;7.044;2022-11-20T11:30:25;6.90;99.90
10129;DHT22;5104;50.720;7.044;2022-11-20T11:33:04;6.80;99.90
10129;DHT22;5104;50.720;7.044;2022-11-20T11:35:33;6.70;99.90
10129;DHT22;5104;50.720;7.044;2022-11-20T11:38:10;6.80;99.90
10129;DHT22;5104;50.720;7.044;2022-11-20T11:40:40;6.80;99.90
10129;DHT22;5104;50.720;7.044;2022-11-20T11:43:20;6.80;99.90
10129;DHT22;5104;50.720;7.044;2022-11-20T11:46:23;6.70;99.90
10129;DHT22;5104;50.720;7.044;2022-11-20T11:48:56;6.70;99.90
10129;DHT22;5104;50.720;7.044;2022-11-20T11:51:26;6.70;99.90
10129;DHT22;5104;50.720;7.044;2022-11-20T11:53:56;6.70;99.90
10129;DHT22;5104;50.720;7.044;2022-11-20T11:56:33;6.50;99.90
10129;DHT22;5104;50.720;7.044;2022-11-20T11:59:04;6.60;99.90
10129;DHT22;5104;50.720;7.044;2022-11-20T12:01:41;6.70;99.90
10129;DHT22;5104;50.720;7.044;2022-11-20T12:04:17;6.80;99.90
10129;DHT22;5104;50.720;7.044;2022-11-20T12:06:51;6.70;99.90
10129;DHT22;5104;50.720;7.044;2022-11-20T12:09:24;6.80;99.90
10129;DHT22;5104;50.720;7.044;2022-11-20T12:11:57;6.90;99.90
10129;DHT22;5104;50.720;7.044;2022-11-20T12:14:29;6.90;99.90
10129;DHT22;5104;50.720;7.044;2022-11-20T12:16:57;6.90;99.90
10129;DHT22;5104;50.720;7.044;2022-11-20T12:19:24;7.00;99.90
10129;DHT22;5104;50.720;7.044;2022-11-20T12:22:00;7.00;99.90
10129;DHT22;5104;50.720;7.044;2022-11-20T12:24:50;7.10;99.90
10129;DHT22;5104;50.720;7.044;2022-11-20T12:30:19;7.30;99.90
10129;DHT22;5104;50.720;7.044;2022-11-20T12:33:04;7.30;99.90
10129;DHT22;5104;50.720;7.044;2022-11-20T12:35:44;7.40;99.90
10129;DHT22;5104;50.720;7.044;2022-11-20T12:38:35;7.40;99.90
10129;DHT22;5104;50.720;7.044;2022-11-20T12:41:12;7.30;99.90
10129;DHT22;5104;50.720;7.044;2022-11-20T12:44:10;7.40;99.90
10129;DHT22;5104;50.720;7.044;2022-11-20T12:47:07;7.60;99.90
10129;DHT22;5104;50.720;7.044;2022-11-20T12:49:41;7.50;99.90
10129;DHT22;5104;50.720;7.044;2022-11-20T12:52:28;7.60;99.90
10129;DHT22;5104;50.720;7.044;2022-11-20T12:55:09;7.70;99.90
10129;DHT22;5104;50.720;7.044;2022-11-20T12:57:44;7.80;99.90
10129;DHT22;5104;50.720;7.044;2022-11-20T13:00:16;7.80;99.90
10129;DHT22;5104;50.720;7.044;2022-11-20T13:03:15;7.70;99.90
10129;DHT22;5104;50.720;7.044;2022-11-20T13:05:53;7.60;99.90
10129;DHT22;5104;50.720;7.044;2022-11-20T13:08:24;7.60;99.90
10129;DHT22;5104;50.720;7.044;2022-11-20T13:10:59;7.70;99.90
10129;DHT22;5104;50.720;7.044;2022-11-20T13:13:33;7.60;99.90
10129;DHT22;5104;50.720;7.044;2022-11-20T13:16:08;7.60;99.90
10129;DHT22;5104;50.720;7.044;2022-11-20T13:18:40;7.50;99.90
10129;DHT22;5104;50.720;7.044;2022-11-20T13:21:15;7.40;99.90
10129;DHT22;5104;50.720;7.044;2022-11-20T13:23:43;7.40;99.90
10129;DHT22;5104;50.720;7.044;2022-11-20T13:26:20;7.60;99.90
10129;DHT22;5104;50.720;7.044;2022-11-20T13:29:03;7.70;99.90
10129;DHT22;5104;50.720;7.044;2022-11-20T13:31:40;7.70;99.90
10129;DHT22;5104;50.720;7.044;2022-11-20T13:34:12;7.60;99.90
10129;DHT22;5104;50.720;7.044;2022-11-20T13:36:49;7.60;99.90
10129;DHT22;5104;50.720;7.044;2022-11-20T13:39:24;7.50;99.90
10129;DHT22;5104;50.720;7.044;2022-11-20T13:41:56;7.50;99.90
10129;DHT22;5104;50.720;7.044;2022-11-20T13:44:28;7.40;99.90
10129;DHT22;5104;50.720;7.044;2022-11-20T13:46:56;7.40;99.90
10129;DHT22;5104;50.720;7.044;2022-11-20T13:49:26;7.40;99.90
10129;DHT22;5104;50.720;7.044;2022-11-20T13:52:02;7.50;99.90
10129;DHT22;5104;50.720;7.044;2022-11-20T13:54:49;7.40;99.90
10129;DHT22;5104;50.720;7.044;2022-11-20T13:57:39;7.50;99.90
10129;DHT22;5104;50.720;7.044;2022-11-20T14:00:12;7.60;99.90
10129;DHT22;5104;50.720;7.044;2022-11-20T14:02:44;7.60;99.90
10129;DHT22;5104;50.720;7.044;2022-11-20T14:05:20;7.60;99.90
10129;DHT22;5104;50.720;7.044;2022-11-20T14:07:50;7.70;99.90
10129;DHT22;5104;50.720;7.044;2022-11-20T14:10:22;7.70;99.90
10129;DHT22;5104;50.720;7.044;2022-11-20T14:12:51;7.80;99.90
10129;DHT22;5104;50.720;7.044;2022-11-20T14:15:26;7.80;99.90
10129;DHT22;5104;50.720;7.044;2022-11-20T14:17:54;7.80;99.90
10129;DHT22;5104;50.720;7.044;2022-11-20T14:20:24;7.90;99.90
10129;DHT22;5104;50.720;7.044;2022-11-20T14:22:55;7.90;99.90
10129;DHT22;5104;50.720;7.044;2022-11-20T14:25:24;7.90;99.90
10129;DHT22;5104;50.720;7.044;2022-11-20T14:27:56;7.90;99.90
10129;DHT22;5104;50.720;7.044;2022-11-20T14:30:25;7.90;99.90
10129;DHT22;5104;50.720;7.044;2022-11-20T14:32:56;8.00;99.90
10129;DHT22;5104;50.720;7.044;2022-11-20T14:35:25;8.00;99.90
10129;DHT22;5104;50.720;7.044;2022-11-20T14:37:53;8.00;99.90
10129;DHT22;5104;50.720;7.044;2022-11-20T14:40:26;8.10;99.90
10129;DHT22;5104;50.720;7.044;2022-11-20T14:42:55;8.00;99.90
10129;DHT22;5104;50.720;7.044;2022-11-20T14:45:22;8.00;99.90
10129;DHT22;5104;50.720;7.044;2022-11-20T14:47:51;8.00;99.90
10129;DHT22;5104;50.720;7.044;2022-11-20T14:50:22;8.00;99.90
10129;DHT22;5104;50.720;7.044;2022-11-20T14:52:53;8.00;99.90
10129;DHT22;5104;50.720;7.044;2022-11-20T14:55:28;8.00;99.90
10129;DHT22;5104;50.720;7.044;2022-11-20T14:58:01;8.00;99.90
10129;DHT22;5104;50.720;7.044;2022-11-20T15:00:28;8.00;99.90
10129;DHT22;5104;50.720;7.044;2022-11-20T15:02:55;8.00;99.90
10129;DHT22;5104;50.720;7.044;2022-11-20T15:05:25;7.90;99.90
10129;DHT22;5104;50.720;7.044;2022-11-20T15:08:05;7.90;99.90
10129;DHT22;5104;50.720;7.044;2022-11-20T15:10:36;7.90;99.90
10129;DHT22;5104;50.720;7.044;2022-11-20T15:13:11;7.90;99.90
10129;DHT22;5104;50.720;7.044;2022-11-20T15:15:44;8.00;99.90
10129;DHT22;5104;50.720;7.044;2022-11-20T15:18:13;8.00;99.90
10129;DHT22;5104;50.720;7.044;2022-11-20T15:20:42;8.00;99.90
10129;DHT22;5104;50.720;7.044;2022-11-20T15:23:11;8.00;99.90
10129;DHT22;5104;50.720;7.044;2022-11-20T15:25:39;8.00;99.90
10129;DHT22;5104;50.720;7.044;2022-11-20T15:28:14;8.00;99.90
10129;DHT22;5104;50.720;7.044;2022-11-20T15:30:42;8.00;99.90
10129;DHT22;5104;50.720;7.044;2022-11-20T15:33:10;7.90;99.90
10129;DHT22;5104;50.720;7.044;2022-11-20T15:35:37;7.90;99.90
10129;DHT22;5104;50.720;7.044;2022-11-20T15:38:04;7.80;99.90
10129;DHT22;5104;50.720;7.044;2022-11-20T15:40:31;7.60;99.90
10129;DHT22;5104;50.720;7.044;2022-11-20T15:42:58;7.60;99.90
10129;DHT22;5104;50.720;7.044;2022-11-20T15:45:35;7.50;99.90
10129;DHT22;5104;50.720;7.044;2022-11-20T15:48:03;7.50;99.90
10129;DHT22;5104;50.720;7.044;2022-11-20T15:50:36;7.40;99.90
10129;DHT22;5104;50.720;7.044;2022-11-20T15:53:04;7.40;99.90
10129;DHT22;5104;50.720;7.044;2022-11-20T15:55:31;7.40;99.90
10129;DHT22;5104;50.720;7.044;2022-11-20T15:57:58;7.40;99.90
10129;DHT22;5104;50.720;7.044;2022-11-20T16:00:25;7.30;99.90
10129;DHT22;5104;50.720;7.044;2022-11-20T16:02:54;7.20;99.90
10129;DHT22;5104;50.720;7.044;2022-11-20T16:05:20;7.10;99.90
10129;DHT22;5104;50.720;7.044;2022-11-20T16:07:50;7.00;99.90
10129;DHT22;5104;50.720;7.044;2022-11-20T16:10:17;7.00;99.90
10129;DHT22;5104;50.720;7.044;2022-11-20T16:12:44;7.00;99.90
10129;DHT22;5104;50.720;7.044;2022-11-20T16:15:29;7.00;99.90
10129;DHT22;5104;50.720;7.044;2022-11-20T16:18:15;6.90;99.90
10129;DHT22;5104;50.720;7.044;2022-11-20T16:20:42;6.80;99.90
10129;DHT22;5104;50.720;7.044;2022-11-20T16:23:10;6.90;99.90
10129;DHT22;5104;50.720;7.044;2022-11-20T16:25:37;6.90;99.90
10129;DHT22;5104;50.720;7.044;2022-11-20T16:28:04;6.90;99.90
10129;DHT22;5104;50.720;7.044;2022-11-20T16:30:31;6.90;99.90